createdAt,value
2023-01-30T00:01:36.362Z,-1.28
2023-01-30T00:04:03.726Z,-1.66
2023-01-30T00:06:32.748Z,-1.31
2023-01-30T00:08:59.980Z,-1.21
2023-01-30T00:11:30.290Z,-1.65
2023-01-30T00:13:57.764Z,-1.40
2023-01-30T00:16:25.369Z,-1.11
2023-01-30T00:18:52.752Z,-1.27
2023-01-30T00:21:20.085Z,-1.65
2023-01-30T00:23:48.847Z,-1.68
2023-01-30T00:26:16.115Z,-1.68
2023-01-30T00:28:43.581Z,-2.17
2023-01-30T00:31:11.059Z,-2.15
2023-01-30T00:33:39.588Z,-2.03
2023-01-30T00:36:07.746Z,-1.86
2023-01-30T00:38:35.252Z,-1.68
2023-01-30T00:41:04.241Z,-1.76
2023-01-30T00:43:50.050Z,-1.63
2023-01-30T00:46:43.393Z,-1.51
2023-01-30T00:49:11.023Z,-1.70
2023-01-30T00:51:38.522Z,-1.96
2023-01-30T00:54:05.849Z,-1.59
2023-01-30T00:56:34.634Z,-1.80
2023-01-30T00:59:02.259Z,-1.70
2023-01-30T01:01:29.619Z,-1.86
2023-01-30T01:03:57.174Z,-1.97
2023-01-30T01:06:24.753Z,-1.80
2023-01-30T01:08:52.001Z,-1.97
2023-01-30T01:11:25.714Z,-2.49
2023-01-30T01:13:55.869Z,-2.20
2023-01-30T01:16:23.816Z,-1.85
2023-01-30T01:18:51.971Z,-1.86
2023-01-30T01:21:20.429Z,-1.96
2023-01-30T01:23:50.610Z,-2.28
2023-01-30T01:26:18.096Z,-2.38
2023-01-30T01:28:47.277Z,-2.28
2023-01-30T01:31:17.613Z,-2.24
2023-01-30T01:33:45.148Z,-2.20
2023-01-30T01:36:20.086Z,-2.10
2023-01-30T01:38:56.911Z,-1.82
2023-01-30T01:41:24.371Z,-2.06
2023-01-30T01:44:04.963Z,-2.51
2023-01-30T01:46:37.233Z,-2.09
2023-01-30T01:49:12.682Z,-2.01
2023-01-30T01:51:43.195Z,-2.33
2023-01-30T01:54:16.271Z,-2.10
2023-01-30T01:56:45.911Z,-2.26
2023-01-30T01:59:20.769Z,-2.33
2023-01-30T02:01:52.174Z,-2.09
2023-01-30T02:04:39.571Z,-2.10
2023-01-30T02:07:07.649Z,-2.51
2023-01-30T02:09:35.332Z,-2.36
2023-01-30T02:12:04.836Z,-2.26
2023-01-30T02:14:34.238Z,-1.99
2023-01-30T02:17:03.106Z,-2.37
2023-01-30T02:19:39.359Z,-2.56
2023-01-30T02:22:42.737Z,-2.51
2023-01-30T02:25:52.049Z,-2.38
2023-01-30T02:28:48.025Z,-2.21
2023-01-30T02:31:36.686Z,-2.58
2023-01-30T02:34:20.517Z,-2.41
2023-01-30T02:36:57.549Z,-2.36
2023-01-30T02:39:38.137Z,-2.34
2023-01-30T02:42:12.146Z,-2.45
2023-01-30T02:44:50.432Z,-2.49
2023-01-30T02:47:24.577Z,-2.30
2023-01-30T02:49:57.343Z,-2.40
2023-01-30T02:52:25.707Z,-2.77
2023-01-30T02:54:53.124Z,-2.61
2023-01-30T02:57:21.594Z,-2.42
2023-01-30T02:59:51.829Z,-2.17
2023-01-30T03:02:42.429Z,-2.62
2023-01-30T03:05:27.402Z,-2.28
2023-01-30T03:08:04.933Z,-2.56
2023-01-30T03:10:38.527Z,-2.73
2023-01-30T03:13:12.324Z,-2.73
2023-01-30T03:15:43.097Z,-2.41
2023-01-30T03:18:12.190Z,-2.55
2023-01-30T03:20:41.381Z,-2.68
2023-01-30T03:23:09.612Z,-2.82
2023-01-30T03:25:39.535Z,-2.65
2023-01-30T03:28:08.431Z,-2.80
2023-01-30T03:30:36.019Z,-2.83
2023-01-30T03:33:03.442Z,-2.40
2023-01-30T03:35:32.631Z,-2.80
2023-01-30T03:37:59.910Z,-2.77
2023-01-30T03:40:27.569Z,-2.54
2023-01-30T03:42:55.091Z,-2.93
2023-01-30T03:45:22.405Z,-2.99
2023-01-30T03:47:49.967Z,-3.00
2023-01-30T03:50:17.622Z,-2.93
2023-01-30T03:52:46.812Z,-2.68
2023-01-30T03:55:14.371Z,-2.76
2023-01-30T03:57:41.662Z,-2.83
2023-01-30T04:00:10.367Z,-2.97
2023-01-30T04:02:38.826Z,-2.83
2023-01-30T04:05:06.665Z,-2.99
2023-01-30T04:07:34.175Z,-2.97
2023-01-30T04:10:02.969Z,-2.96
2023-01-30T04:12:30.255Z,-2.85
2023-01-30T04:14:57.817Z,-2.82
2023-01-30T04:17:25.359Z,-2.79
2023-01-30T04:19:52.761Z,-2.82
2023-01-30T04:22:20.212Z,-2.85
2023-01-30T04:24:47.445Z,-2.65
2023-01-30T04:27:16.315Z,-2.80
2023-01-30T04:29:43.738Z,-2.96
2023-01-30T04:32:10.973Z,-2.59
2023-01-30T04:34:38.346Z,-2.73
2023-01-30T04:37:05.514Z,-2.77
2023-01-30T04:39:33.301Z,-2.87
2023-01-30T04:42:00.700Z,-2.85
2023-01-30T04:44:29.345Z,-2.76
2023-01-30T04:46:57.011Z,-2.99
2023-01-30T04:49:24.605Z,-2.59
2023-01-30T04:51:51.971Z,-2.72
2023-01-30T04:54:19.327Z,-2.89
2023-01-30T04:56:46.622Z,-2.80
2023-01-30T04:59:13.985Z,-2.92
2023-01-30T05:01:43.128Z,-2.82
2023-01-30T05:04:10.789Z,-2.96
2023-01-30T05:06:38.283Z,-2.97
2023-01-30T05:09:06.324Z,-2.79
2023-01-30T05:11:33.950Z,-2.97
2023-01-30T05:14:01.441Z,-3.01
2023-01-30T05:16:29.923Z,-2.97
2023-01-30T05:18:58.555Z,-3.07
2023-01-30T05:21:30.783Z,-2.86
2023-01-30T05:23:58.326Z,-3.10
2023-01-30T05:26:26.341Z,-3.04
2023-01-30T05:28:55.334Z,-3.07
2023-01-30T05:31:23.092Z,-3.03
2023-01-30T05:33:52.544Z,-2.76
2023-01-30T05:36:23.705Z,-2.70
2023-01-30T05:38:51.151Z,-2.96
2023-01-30T05:41:19.322Z,-2.83
2023-01-30T05:43:50.492Z,-2.79
2023-01-30T05:46:18.197Z,-2.97
2023-01-30T05:48:45.896Z,-2.69
2023-01-30T05:51:19.051Z,-3.00
2023-01-30T05:53:48.085Z,-3.10
2023-01-30T05:56:15.996Z,-2.87
2023-01-30T05:58:43.750Z,-2.65
2023-01-30T06:01:13.041Z,-2.69
2023-01-30T06:03:40.703Z,-2.95
2023-01-30T06:06:08.313Z,-2.77
2023-01-30T06:08:36.120Z,-2.59
2023-01-30T06:11:08.338Z,-2.79
2023-01-30T06:13:35.876Z,-2.62
2023-01-30T06:16:07.108Z,-3.06
2023-01-30T06:18:34.619Z,-2.55
2023-01-30T06:21:03.924Z,-2.69
2023-01-30T06:23:35.227Z,-2.87
2023-01-30T06:26:06.264Z,-2.83
2023-01-30T06:28:35.816Z,-2.79
2023-01-30T06:31:03.477Z,-2.66
2023-01-30T06:33:30.814Z,-2.66
2023-01-30T06:35:59.603Z,-2.40
2023-01-30T06:38:27.135Z,-2.40
2023-01-30T06:40:54.422Z,-2.34
2023-01-30T06:43:23.357Z,-2.38
2023-01-30T06:45:50.895Z,-2.42
2023-01-30T06:48:18.636Z,-2.61
2023-01-30T06:50:46.741Z,-2.70
2023-01-30T06:53:14.503Z,-2.73
2023-01-30T06:55:41.897Z,-2.52
2023-01-30T06:58:10.911Z,-2.42
2023-01-30T07:00:40.846Z,-2.38
2023-01-30T07:03:11.153Z,-2.30
2023-01-30T07:05:39.385Z,-2.14
2023-01-30T07:08:07.275Z,-1.55
2023-01-30T07:10:36.069Z,-1.31
2023-01-30T07:13:03.929Z,-1.27
2023-01-30T07:15:31.559Z,-1.66
2023-01-30T07:18:00.514Z,-1.44
2023-01-30T07:20:30.126Z,-1.14
2023-01-30T07:22:58.130Z,-1.24
2023-01-30T07:25:29.688Z,-1.32
2023-01-30T07:27:58.753Z,-1.21
2023-01-30T07:30:27.531Z,-1.20
2023-01-30T07:32:57.939Z,-1.10
2023-01-30T07:35:28.091Z,-0.52
2023-01-30T07:37:55.691Z,-0.73
2023-01-30T07:40:23.853Z,-0.58
2023-01-30T07:42:58.760Z,-0.42
2023-01-30T07:45:26.367Z,-0.08
2023-01-30T07:47:54.461Z,0.10
2023-01-30T07:50:21.679Z,0.14
2023-01-30T07:52:50.314Z,0.24
2023-01-30T07:55:17.909Z,0.42
2023-01-30T07:57:45.714Z,0.44
2023-01-30T08:00:14.330Z,0.44
2023-01-30T08:02:41.764Z,0.59
2023-01-30T08:05:09.838Z,0.68
2023-01-30T08:07:37.166Z,0.76
2023-01-30T08:10:07.131Z,0.86
2023-01-30T08:12:34.597Z,0.86
2023-01-30T08:15:01.869Z,1.17
2023-01-30T08:17:29.423Z,1.28
2023-01-30T08:19:56.682Z,1.26
2023-01-30T08:22:24.117Z,1.41
2023-01-30T08:24:51.703Z,1.33
2023-01-30T08:27:20.463Z,1.26
2023-01-30T08:29:47.785Z,1.26
2023-01-30T08:32:15.968Z,1.33
2023-01-30T08:34:43.531Z,1.38
2023-01-30T08:37:10.748Z,1.26
2023-01-30T08:39:37.983Z,1.48
2023-01-30T08:42:05.492Z,1.56
2023-01-30T08:44:34.308Z,1.52
2023-01-30T08:47:01.649Z,1.56
2023-01-30T08:49:28.913Z,1.56
2023-01-30T08:51:56.394Z,1.52
2023-01-30T08:54:25.591Z,1.54
2023-01-30T08:56:53.303Z,1.76
2023-01-30T08:59:20.701Z,1.65
2023-01-30T09:01:49.573Z,1.82
2023-01-30T09:04:16.886Z,1.87
2023-01-30T09:06:44.274Z,1.96
2023-01-30T09:09:12.043Z,2.09
2023-01-30T09:11:39.498Z,1.96
2023-01-30T09:14:06.663Z,1.99
2023-01-30T09:16:33.938Z,1.82
2023-01-30T09:19:02.588Z,1.96
2023-01-30T09:21:32.104Z,2.12
2023-01-30T09:23:59.415Z,2.01
2023-01-30T09:26:26.654Z,2.19
2023-01-30T09:28:53.979Z,2.07
2023-01-30T09:31:21.466Z,2.07
2023-01-30T09:33:49.193Z,2.03
2023-01-30T09:36:17.854Z,1.99
2023-01-30T09:38:45.085Z,1.87
2023-01-30T09:41:41.263Z,1.91
2023-01-30T09:44:34.952Z,1.91
2023-01-30T09:47:09.933Z,1.82
2023-01-30T09:49:46.141Z,1.69
2023-01-30T09:52:27.227Z,1.89
2023-01-30T09:55:02.117Z,1.86
2023-01-30T09:57:29.860Z,2.07
2023-01-30T10:00:02.827Z,2.02
2023-01-30T10:02:42.427Z,2.33
2023-01-30T10:05:10.455Z,2.36
2023-01-30T10:08:01.289Z,2.41
2023-01-30T10:10:55.054Z,2.52
2023-01-30T10:13:50.666Z,2.36
2023-01-30T10:16:21.410Z,2.51
2023-01-30T10:19:20.518Z,2.42
2023-01-30T10:21:57.618Z,2.54
2023-01-30T10:24:49.074Z,2.50
2023-01-30T10:27:17.737Z,2.58
2023-01-30T10:29:48.047Z,2.44
2023-01-30T10:32:20.287Z,2.42
2023-01-30T10:34:52.105Z,2.47
2023-01-30T10:37:26.666Z,2.40
2023-01-30T10:40:03.268Z,2.64
2023-01-30T10:42:39.456Z,2.85
2023-01-30T10:45:13.778Z,3.05
2023-01-30T10:47:53.367Z,3.19
2023-01-30T10:50:26.230Z,3.50
2023-01-30T10:53:00.227Z,3.65
2023-01-30T10:55:38.117Z,3.99
2023-01-30T10:58:18.388Z,4.19
2023-01-30T11:00:52.367Z,4.32
2023-01-30T11:03:28.625Z,4.32
2023-01-30T11:06:01.039Z,4.26
2023-01-30T11:08:30.181Z,4.49
2023-01-30T11:10:59.863Z,4.46
2023-01-30T11:13:30.683Z,4.60
2023-01-30T11:16:00.158Z,5.09
2023-01-30T11:19:17.304Z,5.02
2023-01-30T11:21:23.444Z,5.26
2023-01-30T11:23:54.651Z,4.82
2023-01-30T11:26:32.065Z,4.93
2023-01-30T11:29:16.883Z,5.15
2023-01-30T11:31:49.889Z,4.95
2023-01-30T11:34:19.136Z,5.11
2023-01-30T11:36:49.971Z,4.81
2023-01-30T11:39:23.456Z,4.92
2023-01-30T11:42:03.667Z,4.84
2023-01-30T11:44:34.368Z,4.89
2023-01-30T11:47:04.802Z,5.00
2023-01-30T11:49:46.407Z,4.85
2023-01-30T11:52:28.668Z,4.82
2023-01-30T11:55:01.375Z,4.68
2023-01-30T11:57:30.255Z,4.84
2023-01-30T12:00:00.782Z,4.78
2023-01-30T12:02:33.911Z,4.95
2023-01-30T12:05:03.058Z,4.92
2023-01-30T12:07:33.046Z,4.65
2023-01-30T12:10:02.087Z,4.58
2023-01-30T12:12:34.332Z,4.65
2023-01-30T12:15:11.821Z,4.64
2023-01-30T12:17:46.151Z,4.67
2023-01-30T12:20:20.363Z,4.80
2023-01-30T12:22:57.820Z,4.61
2023-01-30T12:25:28.122Z,4.74
2023-01-30T12:28:03.374Z,4.70
2023-01-30T12:30:36.886Z,4.67
2023-01-30T12:33:06.830Z,4.70
2023-01-30T12:35:48.175Z,4.91
2023-01-30T12:38:28.328Z,5.07
2023-01-30T12:41:06.734Z,5.32
2023-01-30T12:43:53.104Z,5.44
2023-01-30T12:46:36.876Z,5.27
2023-01-30T12:49:20.524Z,5.33
2023-01-30T12:52:05.106Z,5.30
2023-01-30T12:54:46.006Z,5.58
2023-01-30T12:57:21.587Z,5.42
2023-01-30T13:00:03.828Z,5.19
2023-01-30T13:02:50.037Z,5.04
2023-01-30T13:05:32.551Z,4.96
2023-01-30T13:08:29.903Z,5.02
2023-01-30T13:11:10.095Z,4.99
2023-01-30T13:13:43.201Z,4.87
2023-01-30T13:16:23.328Z,4.91
2023-01-30T13:18:55.625Z,4.80
2023-01-30T13:21:29.265Z,4.98
2023-01-30T13:24:13.885Z,4.93
2023-01-30T13:26:43.718Z,4.91
2023-01-30T13:29:16.053Z,4.92
2023-01-30T13:31:52.048Z,4.82
2023-01-30T13:34:26.664Z,4.87
2023-01-30T13:36:59.536Z,4.72
2023-01-30T13:39:47.166Z,4.77
2023-01-30T13:42:27.138Z,4.67
2023-01-30T13:44:55.785Z,4.67
2023-01-30T13:47:39.786Z,4.67
2023-01-30T13:50:23.293Z,4.70
2023-01-30T13:52:56.847Z,4.68
2023-01-30T13:55:29.781Z,4.78
2023-01-30T13:58:05.908Z,4.81
2023-01-30T14:00:34.951Z,4.68
2023-01-30T14:03:30.678Z,4.88
2023-01-30T14:06:05.065Z,4.77
2023-01-30T14:08:39.696Z,4.74
2023-01-30T14:11:36.156Z,4.68
2023-01-30T14:14:07.297Z,4.49
2023-01-30T14:16:43.589Z,4.50
2023-01-30T14:19:33.753Z,4.54
2023-01-30T14:22:04.948Z,4.71
2023-01-30T14:24:32.248Z,4.98
2023-01-30T14:27:05.579Z,4.77
2023-01-30T14:29:55.799Z,4.68
2023-01-30T14:32:52.877Z,4.77
2023-01-30T14:35:25.086Z,4.85
2023-01-30T14:38:08.889Z,4.81
2023-01-30T14:40:41.178Z,4.82
2023-01-30T14:43:36.373Z,4.89
2023-01-30T14:46:08.638Z,4.78
2023-01-30T14:48:41.739Z,4.58
2023-01-30T14:51:22.805Z,4.77
2023-01-30T14:53:55.224Z,4.58
2023-01-30T14:56:41.388Z,4.47
2023-01-30T14:59:18.410Z,4.51
2023-01-30T15:02:02.747Z,4.53
2023-01-30T15:04:32.939Z,4.34
2023-01-30T15:07:07.868Z,4.49
2023-01-30T15:09:37.234Z,4.30
2023-01-30T15:12:22.699Z,4.16
2023-01-30T15:14:59.011Z,4.20
2023-01-30T15:17:33.175Z,4.12
2023-01-30T15:20:15.988Z,4.16
2023-01-30T15:23:04.303Z,4.16
2023-01-30T15:25:43.604Z,4.34
2023-01-30T15:28:20.700Z,4.26
2023-01-30T15:30:57.485Z,4.28
2023-01-30T15:33:31.470Z,4.07
2023-01-30T15:36:00.367Z,3.86
2023-01-30T15:38:31.944Z,3.89
2023-01-30T15:41:01.894Z,3.88
2023-01-30T15:43:53.158Z,3.95
2023-01-30T15:46:28.726Z,4.41
2023-01-30T15:49:19.603Z,4.41
2023-01-30T15:51:47.345Z,4.33
2023-01-30T15:54:19.492Z,4.26
2023-01-30T15:56:49.887Z,4.12
2023-01-30T15:59:27.726Z,4.03
2023-01-30T16:02:04.322Z,3.91
2023-01-30T16:04:32.259Z,3.89
2023-01-30T16:06:59.756Z,3.84
2023-01-30T16:09:28.391Z,3.75
2023-01-30T16:11:56.312Z,3.74
2023-01-30T16:14:24.025Z,3.74
2023-01-30T16:16:56.021Z,3.81
2023-01-30T16:19:28.821Z,3.53
2023-01-30T16:21:59.117Z,3.46
2023-01-30T16:24:32.179Z,3.82
2023-01-30T16:27:03.089Z,3.64
2023-01-30T16:29:34.731Z,3.74
2023-01-30T16:32:02.355Z,3.65
2023-01-30T16:34:32.122Z,3.63
2023-01-30T16:37:04.550Z,3.57
2023-01-30T16:39:35.141Z,3.74
2023-01-30T16:42:18.827Z,3.64
2023-01-30T16:44:46.174Z,3.20
2023-01-30T16:47:23.608Z,3.20
2023-01-30T16:49:52.975Z,3.43
2023-01-30T16:52:22.973Z,3.54
2023-01-30T16:54:53.950Z,3.50
2023-01-30T16:57:35.177Z,3.64
2023-01-30T17:00:07.396Z,3.53
2023-01-30T17:02:37.614Z,3.94
2023-01-30T17:05:27.227Z,4.02
2023-01-30T17:08:00.612Z,3.31
2023-01-30T17:11:00.023Z,3.13
2023-01-30T17:13:36.316Z,3.73
2023-01-30T17:16:29.578Z,3.24
2023-01-30T17:18:58.385Z,3.30
2023-01-30T17:21:29.294Z,3.23
2023-01-30T17:24:00.009Z,3.33
2023-01-30T17:26:28.069Z,3.03
2023-01-30T17:28:57.202Z,3.30
2023-01-30T17:31:24.910Z,3.06
2023-01-30T17:33:52.300Z,3.53
2023-01-30T17:36:24.206Z,3.64
2023-01-30T17:38:52.156Z,3.51
2023-01-30T17:41:21.171Z,2.84
2023-01-30T17:43:49.859Z,2.74
2023-01-30T17:46:24.308Z,3.13
2023-01-30T17:48:51.931Z,3.36
2023-01-30T17:51:19.434Z,3.38
2023-01-30T17:53:47.058Z,2.87
2023-01-30T17:56:18.966Z,2.93
2023-01-30T17:58:47.585Z,2.65
2023-01-30T18:01:16.433Z,2.96
2023-01-30T18:03:45.269Z,2.79
2023-01-30T18:06:14.664Z,3.28
2023-01-30T18:08:42.787Z,3.26
2023-01-30T18:11:12.119Z,3.34
2023-01-30T18:13:39.896Z,3.33
2023-01-30T18:16:11.596Z,2.95
2023-01-30T18:18:39.230Z,3.40
2023-01-30T18:21:08.193Z,2.85
2023-01-30T18:23:37.450Z,3.22
2023-01-30T18:26:05.440Z,2.78
2023-01-30T18:28:33.218Z,3.00
2023-01-30T18:31:00.811Z,2.81
2023-01-30T18:33:28.272Z,2.75
2023-01-30T18:35:55.847Z,2.92
2023-01-30T18:38:24.911Z,2.98
2023-01-30T18:40:52.397Z,2.69
2023-01-30T18:43:21.393Z,2.89
2023-01-30T18:45:50.141Z,2.66
2023-01-30T18:48:17.731Z,3.10
2023-01-30T18:50:45.465Z,2.91
2023-01-30T18:53:13.025Z,2.65
2023-01-30T18:55:49.556Z,2.72
2023-01-30T18:58:17.074Z,2.92
2023-01-30T19:00:45.383Z,2.75
2023-01-30T19:03:13.046Z,2.58
2023-01-30T19:05:40.652Z,2.37
2023-01-30T19:08:10.614Z,2.17
2023-01-30T19:10:38.234Z,2.02
2023-01-30T19:13:25.680Z,2.07
2023-01-30T19:15:57.962Z,2.12
2023-01-30T19:18:27.178Z,1.98
2023-01-30T19:20:54.782Z,1.86
2023-01-30T19:23:26.592Z,2.17
2023-01-30T19:25:55.081Z,1.59
2023-01-30T19:28:24.318Z,1.52
2023-01-30T19:30:53.710Z,1.22
2023-01-30T19:33:21.257Z,1.37
2023-01-30T19:35:48.923Z,1.38
2023-01-30T19:38:16.846Z,1.47
2023-01-30T19:40:45.687Z,1.23
2023-01-30T19:43:14.306Z,1.65
2023-01-30T19:45:43.234Z,1.31
2023-01-30T19:48:11.333Z,1.37
2023-01-30T19:50:38.896Z,1.13
2023-01-30T19:53:06.590Z,1.45
2023-01-30T19:55:35.284Z,1.34
2023-01-30T19:58:03.659Z,1.37
2023-01-30T20:00:30.950Z,0.90
2023-01-30T20:03:01.221Z,0.76
2023-01-30T20:05:29.245Z,1.20
2023-01-30T20:07:57.096Z,0.96
2023-01-30T20:10:24.907Z,0.61
2023-01-30T20:12:52.517Z,0.72
2023-01-30T20:15:20.565Z,1.06
2023-01-30T20:17:48.066Z,1.01
2023-01-30T20:20:18.184Z,0.95
2023-01-30T20:22:55.659Z,0.55
2023-01-30T20:25:23.116Z,0.66
2023-01-30T20:27:50.757Z,0.41
2023-01-30T20:30:19.837Z,0.49
2023-01-30T20:32:47.743Z,0.54
2023-01-30T20:35:17.908Z,0.70
2023-01-30T20:37:45.419Z,0.92
2023-01-30T20:40:14.353Z,0.97
2023-01-30T20:42:41.861Z,0.86
2023-01-30T20:45:10.317Z,0.72
2023-01-30T20:47:40.605Z,0.55
2023-01-30T20:50:09.387Z,0.32
2023-01-30T20:52:38.779Z,0.45
2023-01-30T20:55:07.355Z,0.11
2023-01-30T20:57:34.952Z,-0.07
2023-01-30T21:00:04.493Z,-0.22
2023-01-30T21:02:31.892Z,-0.38
2023-01-30T21:04:59.749Z,-0.49
2023-01-30T21:07:28.783Z,-0.64
2023-01-30T21:09:57.817Z,-0.48
2023-01-30T21:12:25.719Z,-0.35
2023-01-30T21:14:53.406Z,-0.28
2023-01-30T21:17:20.992Z,-0.17
2023-01-30T21:19:48.387Z,-0.15
2023-01-30T21:22:15.620Z,-0.32
2023-01-30T21:24:43.329Z,0.06
2023-01-30T21:27:12.018Z,0.00
2023-01-30T21:29:39.555Z,-0.32
2023-01-30T21:32:07.115Z,-0.34
2023-01-30T21:34:35.335Z,-0.28
2023-01-30T21:37:21.104Z,-0.25
2023-01-30T21:40:06.992Z,-0.22
2023-01-30T21:42:54.244Z,-0.15
2023-01-30T21:45:22.420Z,-0.11
2023-01-30T21:47:54.269Z,-0.11
2023-01-30T21:50:21.775Z,-0.10
2023-01-30T21:52:49.413Z,0.37
2023-01-30T21:55:16.848Z,0.44
2023-01-30T21:57:45.665Z,0.36
2023-01-30T22:00:14.194Z,0.18
2023-01-30T22:02:41.439Z,0.34
2023-01-30T22:05:09.691Z,-0.01
2023-01-30T22:07:37.553Z,-0.10
2023-01-30T22:10:05.480Z,-0.27
2023-01-30T22:12:32.899Z,-0.28
2023-01-30T22:15:01.663Z,-0.15
2023-01-30T22:17:28.933Z,-0.31
2023-01-30T22:19:56.336Z,-0.25
2023-01-30T22:22:24.824Z,-0.22
2023-01-30T22:24:52.398Z,-0.25
2023-01-30T22:27:19.717Z,-0.19
2023-01-30T22:29:46.931Z,-0.42
2023-01-30T22:32:15.637Z,-0.59
2023-01-30T22:34:43.003Z,-0.38
2023-01-30T22:37:10.315Z,-0.61
2023-01-30T22:39:37.570Z,-0.56
2023-01-30T22:42:05.251Z,-0.48
2023-01-30T22:44:32.504Z,-0.45
2023-01-30T22:47:00.004Z,-0.61
2023-01-30T22:49:28.720Z,-0.42
2023-01-30T22:51:55.958Z,-0.38
2023-01-30T22:54:24.990Z,-0.36
2023-01-30T22:56:52.767Z,0.07
2023-01-30T22:59:20.081Z,0.02
2023-01-30T23:01:48.446Z,0.02
2023-01-30T23:04:17.420Z,-0.11
2023-01-30T23:06:47.211Z,0.13
2023-01-30T23:09:17.410Z,-0.07
2023-01-30T23:12:06.644Z,-0.41
2023-01-30T23:14:34.026Z,-0.18
2023-01-30T23:17:01.384Z,0.09
2023-01-30T23:19:28.779Z,0.85
2023-01-30T23:21:57.577Z,1.22
2023-01-30T23:24:24.908Z,1.55
2023-01-30T23:26:52.416Z,1.98
2023-01-30T23:29:20.658Z,2.36
2023-01-30T23:31:48.105Z,2.45
2023-01-30T23:34:16.950Z,2.65
2023-01-30T23:36:44.972Z,2.85
2023-01-30T23:39:14.438Z,2.75
2023-01-30T23:41:42.682Z,2.66
2023-01-30T23:44:10.426Z,2.85
2023-01-30T23:46:39.982Z,2.85
2023-01-30T23:49:08.723Z,2.79
2023-01-30T23:51:37.762Z,2.02
2023-01-30T23:54:06.085Z,1.82
2023-01-30T23:56:36.377Z,1.41
2023-01-30T23:59:04.467Z,1.09
